createdAt,value
2022-11-10T00:00:00.311Z,100.00
2022-11-10T00:02:28.092Z,100.00
2022-11-10T00:04:55.896Z,100.00
2022-11-10T00:07:25.634Z,100.00
2022-11-10T00:09:55.436Z,100.00
2022-11-10T00:12:23.703Z,100.00
2022-11-10T00:15:08.983Z,100.00
2022-11-10T00:17:37.826Z,100.00
2022-11-10T00:20:06.894Z,100.00
2022-11-10T00:22:35.648Z,100.00
2022-11-10T00:25:05.605Z,100.00
2022-11-10T00:27:33.888Z,100.00
2022-11-10T00:30:01.997Z,100.00
2022-11-10T00:32:29.676Z,100.00
2022-11-10T00:34:57.383Z,100.00
2022-11-10T00:37:25.105Z,100.00
2022-11-10T00:39:52.852Z,100.00
2022-11-10T00:42:21.925Z,100.00
2022-11-10T00:44:49.771Z,100.00
2022-11-10T00:47:17.705Z,100.00
2022-11-10T00:49:45.519Z,100.00
2022-11-10T00:52:13.877Z,100.00
2022-11-10T00:54:41.608Z,100.00
2022-11-10T00:57:09.300Z,100.00
2022-11-10T00:59:38.338Z,100.00
2022-11-10T01:02:06.054Z,100.00
2022-11-10T01:04:33.973Z,100.00
2022-11-10T01:07:01.808Z,100.00
2022-11-10T01:09:30.060Z,100.00
2022-11-10T01:11:57.987Z,100.00
2022-11-10T01:14:25.772Z,100.00
2022-11-10T01:16:55.053Z,100.00
2022-11-10T01:19:22.794Z,100.00
2022-11-10T01:21:52.015Z,100.00
2022-11-10T01:24:22.555Z,100.00
2022-11-10T01:26:50.894Z,100.00
2022-11-10T01:29:18.743Z,100.00
2022-11-10T01:31:46.554Z,100.00
2022-11-10T01:34:17.209Z,100.00
2022-11-10T01:36:44.917Z,100.00
2022-11-10T01:39:12.952Z,100.00
2022-11-10T01:41:40.794Z,100.00
2022-11-10T01:44:17.249Z,100.00
2022-11-10T01:46:45.131Z,100.00
2022-11-10T01:49:14.420Z,100.00
2022-11-10T01:51:50.105Z,100.00
2022-11-10T01:54:23.101Z,100.00
2022-11-10T01:56:54.344Z,100.00
2022-11-10T01:59:26.604Z,100.00
2022-11-10T02:01:59.427Z,100.00
2022-11-10T02:04:28.107Z,100.00
2022-11-10T02:06:57.815Z,100.00
2022-11-10T02:09:26.354Z,100.00
2022-11-10T02:11:56.543Z,100.00
2022-11-10T02:14:24.385Z,100.00
2022-11-10T02:16:52.420Z,100.00
2022-11-10T02:19:23.502Z,100.00
2022-11-10T02:21:52.913Z,100.00
2022-11-10T02:24:20.783Z,100.00
2022-11-10T02:26:54.848Z,100.00
2022-11-10T02:29:23.673Z,100.00
2022-11-10T02:31:51.345Z,100.00
2022-11-10T02:34:19.175Z,100.00
2022-11-10T02:36:46.920Z,100.00
2022-11-10T02:39:16.087Z,100.00
2022-11-10T02:41:43.799Z,100.00
2022-11-10T02:44:11.545Z,100.00
2022-11-10T02:46:39.234Z,100.00
2022-11-10T02:49:07.996Z,100.00
2022-11-10T02:51:35.716Z,100.00
2022-11-10T02:54:03.779Z,100.00
2022-11-10T02:56:35.334Z,100.00
2022-11-10T02:59:03.300Z,100.00
2022-11-10T03:01:32.327Z,100.00
2022-11-10T03:04:00.148Z,100.00
2022-11-10T03:06:27.874Z,100.00
2022-11-10T03:08:55.892Z,100.00
2022-11-10T03:11:26.826Z,100.00
2022-11-10T03:14:02.081Z,100.00
2022-11-10T03:16:30.493Z,100.00
2022-11-10T03:18:58.736Z,100.00
2022-11-10T03:21:26.427Z,100.00
2022-11-10T03:23:54.149Z,100.00
2022-11-10T03:26:23.007Z,100.00
2022-11-10T03:28:50.782Z,100.00
2022-11-10T03:31:20.030Z,100.00
2022-11-10T03:33:47.766Z,100.00
2022-11-10T03:36:15.483Z,100.00
2022-11-10T03:38:43.204Z,100.00
2022-11-10T03:41:20.036Z,100.00
2022-11-10T03:43:48.375Z,100.00
2022-11-10T03:46:16.271Z,100.00
2022-11-10T03:48:51.792Z,100.00
2022-11-10T03:51:20.883Z,100.00
2022-11-10T03:53:48.608Z,100.00
2022-11-10T03:56:16.470Z,100.00
2022-11-10T03:58:44.153Z,100.00
2022-11-10T04:01:11.875Z,100.00
2022-11-10T04:03:39.653Z,100.00
2022-11-10T04:06:29.524Z,100.00
2022-11-10T04:09:00.360Z,100.00
2022-11-10T04:11:47.971Z,100.00
2022-11-10T04:14:33.687Z,100.00
2022-11-10T04:17:01.442Z,100.00
2022-11-10T04:19:29.994Z,100.00
2022-11-10T04:21:59.192Z,100.00
2022-11-10T04:24:27.011Z,100.00
2022-11-10T04:26:54.997Z,100.00
2022-11-10T04:29:22.754Z,100.00
2022-11-10T04:31:50.507Z,100.00
2022-11-10T04:34:18.192Z,100.00
2022-11-10T04:36:46.080Z,100.00
2022-11-10T04:39:15.165Z,100.00
2022-11-10T04:41:43.007Z,100.00
2022-11-10T04:44:10.809Z,100.00
2022-11-10T04:46:39.885Z,100.00
2022-11-10T04:49:08.680Z,100.00
2022-11-10T04:51:38.223Z,100.00
2022-11-10T04:54:07.393Z,100.00
2022-11-10T04:56:37.076Z,100.00
2022-11-10T04:59:05.001Z,100.00
2022-11-10T05:01:32.798Z,100.00
2022-11-10T05:04:01.036Z,100.00
2022-11-10T05:06:29.061Z,100.00
2022-11-10T05:08:56.827Z,100.00
2022-11-10T05:11:24.542Z,100.00
2022-11-10T05:13:53.647Z,100.00
2022-11-10T05:16:23.450Z,100.00
2022-11-10T05:18:54.173Z,100.00
2022-11-10T05:21:22.218Z,100.00
2022-11-10T05:23:50.000Z,100.00
2022-11-10T05:26:21.597Z,100.00
2022-11-10T05:28:49.357Z,100.00
2022-11-10T05:31:18.421Z,100.00
2022-11-10T05:33:46.196Z,100.00
2022-11-10T05:36:13.945Z,100.00
2022-11-10T05:38:43.758Z,100.00
2022-11-10T05:41:12.544Z,100.00
2022-11-10T05:43:40.902Z,100.00
2022-11-10T05:46:08.663Z,100.00
2022-11-10T05:48:37.715Z,100.00
2022-11-10T05:51:05.715Z,100.00
2022-11-10T05:53:33.471Z,100.00
2022-11-10T05:56:01.295Z,100.00
2022-11-10T05:58:29.054Z,100.00
2022-11-10T06:00:58.837Z,100.00
2022-11-10T06:03:26.877Z,100.00
2022-11-10T06:05:56.989Z,100.00
2022-11-10T06:08:25.040Z,100.00
2022-11-10T06:10:53.628Z,100.00
2022-11-10T06:13:21.771Z,100.00
2022-11-10T06:15:50.698Z,100.00
2022-11-10T06:18:18.705Z,100.00
2022-11-10T06:20:47.489Z,100.00
2022-11-10T06:23:17.037Z,100.00
2022-11-10T06:25:45.598Z,100.00
2022-11-10T06:28:14.682Z,100.00
2022-11-10T06:30:42.503Z,100.00
2022-11-10T06:33:10.912Z,100.00
2022-11-10T06:35:38.817Z,100.00
2022-11-10T06:38:08.650Z,100.00
2022-11-10T06:40:37.788Z,100.00
2022-11-10T06:43:05.559Z,100.00
2022-11-10T06:45:33.233Z,100.00
2022-11-10T06:48:02.428Z,100.00
2022-11-10T06:50:30.670Z,100.00
2022-11-10T06:53:00.344Z,100.00
2022-11-10T06:55:28.588Z,100.00
2022-11-10T06:57:58.004Z,100.00
2022-11-10T07:00:26.623Z,100.00
2022-11-10T07:03:02.216Z,100.00
2022-11-10T07:05:30.782Z,100.00
2022-11-10T07:08:02.913Z,100.00
2022-11-10T07:10:30.592Z,100.00
2022-11-10T07:13:00.136Z,100.00
2022-11-10T07:15:27.995Z,100.00
2022-11-10T07:17:56.078Z,100.00
2022-11-10T07:20:23.919Z,100.00
2022-11-10T07:22:58.065Z,100.00
2022-11-10T07:25:25.990Z,100.00
2022-11-10T07:27:57.449Z,100.00
2022-11-10T07:30:27.686Z,100.00
2022-11-10T07:32:59.929Z,100.00
2022-11-10T07:35:28.414Z,100.00
2022-11-10T07:37:56.362Z,100.00
2022-11-10T07:40:24.469Z,100.00
2022-11-10T07:42:52.308Z,100.00
2022-11-10T07:45:20.157Z,100.00
2022-11-10T07:47:50.175Z,100.00
2022-11-10T07:50:18.211Z,100.00
2022-11-10T07:52:46.088Z,100.00
2022-11-10T07:55:13.866Z,100.00
2022-11-10T07:57:43.818Z,100.00
2022-11-10T08:00:13.485Z,100.00
2022-11-10T08:02:41.339Z,100.00
2022-11-10T08:05:10.818Z,100.00
2022-11-10T08:07:38.697Z,100.00
2022-11-10T08:10:07.469Z,100.00
2022-11-10T08:12:35.136Z,100.00
2022-11-10T08:15:02.818Z,100.00
2022-11-10T08:17:30.544Z,100.00
2022-11-10T08:19:58.259Z,100.00
2022-11-10T08:22:27.405Z,100.00
2022-11-10T08:24:55.099Z,100.00
2022-11-10T08:27:22.796Z,100.00
2022-11-10T08:29:50.889Z,100.00
2022-11-10T08:32:18.563Z,100.00
2022-11-10T08:34:46.332Z,100.00
2022-11-10T08:37:14.008Z,100.00
2022-11-10T08:39:43.398Z,100.00
2022-11-10T08:42:11.163Z,100.00
2022-11-10T08:44:39.020Z,100.00
2022-11-10T08:47:06.720Z,100.00
2022-11-10T08:49:34.415Z,100.00
2022-11-10T08:52:02.132Z,100.00
2022-11-10T08:54:30.078Z,100.00
2022-11-10T08:56:59.212Z,100.00
2022-11-10T08:59:26.879Z,100.00
2022-11-10T09:01:54.604Z,100.00
2022-11-10T09:04:22.425Z,100.00
2022-11-10T09:06:50.198Z,100.00
2022-11-10T09:09:17.951Z,100.00
2022-11-10T09:11:45.660Z,100.00
2022-11-10T09:14:14.716Z,100.00
2022-11-10T09:16:42.408Z,100.00
2022-11-10T09:19:12.291Z,100.00
2022-11-10T09:21:43.257Z,100.00
2022-11-10T09:24:11.818Z,100.00
2022-11-10T09:26:39.617Z,100.00
2022-11-10T09:29:07.276Z,100.00
2022-11-10T09:31:36.286Z,100.00
2022-11-10T09:34:04.617Z,100.00
2022-11-10T09:36:32.439Z,100.00
2022-11-10T09:39:00.087Z,100.00
2022-11-10T09:41:29.828Z,100.00
2022-11-10T09:44:05.190Z,100.00
2022-11-10T09:46:39.361Z,100.00
2022-11-10T09:49:21.557Z,100.00
2022-11-10T09:51:50.073Z,100.00
2022-11-10T09:54:31.765Z,100.00
2022-11-10T09:57:01.149Z,100.00
2022-11-10T09:59:32.167Z,100.00
2022-11-10T10:02:05.388Z,100.00
2022-11-10T10:05:04.487Z,100.00
2022-11-10T10:07:39.687Z,100.00
2022-11-10T10:10:17.529Z,100.00
2022-11-10T10:13:10.979Z,100.00
2022-11-10T10:15:50.545Z,100.00
2022-11-10T10:18:30.059Z,100.00
2022-11-10T10:21:18.341Z,100.00
2022-11-10T10:26:41.000Z,100.00
2022-11-10T10:29:11.485Z,100.00
2022-11-10T10:31:43.082Z,100.00
2022-11-10T10:34:17.624Z,100.00
2022-11-10T10:36:46.493Z,100.00
2022-11-10T10:39:17.436Z,100.00
2022-11-10T10:41:47.006Z,100.00
2022-11-10T10:44:16.824Z,100.00
2022-11-10T10:46:47.762Z,100.00
2022-11-10T10:49:28.467Z,100.00
2022-11-10T10:52:04.063Z,100.00
2022-11-10T10:54:33.549Z,100.00
2022-11-10T10:57:07.356Z,100.00
2022-11-10T10:59:35.541Z,100.00
2022-11-10T11:02:03.320Z,100.00
2022-11-10T11:04:35.425Z,100.00
2022-11-10T11:07:05.861Z,100.00
2022-11-10T11:09:41.837Z,100.00
2022-11-10T11:12:12.466Z,100.00
2022-11-10T11:14:44.811Z,100.00
2022-11-10T11:17:18.861Z,100.00
2022-11-10T11:19:58.513Z,100.00
2022-11-10T11:22:50.172Z,100.00
2022-11-10T11:25:27.165Z,100.00
2022-11-10T11:28:04.755Z,100.00
2022-11-10T11:30:46.771Z,100.00
2022-11-10T11:33:22.800Z,100.00
2022-11-10T11:35:59.416Z,100.00
2022-11-10T11:38:33.099Z,100.00
2022-11-10T11:41:12.386Z,100.00
2022-11-10T11:44:14.538Z,100.00
2022-11-10T11:46:49.440Z,100.00
2022-11-10T11:49:35.277Z,100.00
2022-11-10T11:52:12.125Z,100.00
2022-11-10T11:54:55.077Z,100.00
2022-11-10T11:57:40.003Z,100.00
2022-11-10T12:00:14.040Z,100.00
2022-11-10T12:03:11.854Z,100.00
2022-11-10T12:05:51.864Z,100.00
2022-11-10T12:08:30.647Z,100.00
2022-11-10T12:11:09.542Z,100.00
2022-11-10T12:13:51.839Z,100.00
2022-11-10T12:16:25.321Z,100.00
2022-11-10T12:19:03.426Z,100.00
2022-11-10T12:21:38.977Z,100.00
2022-11-10T12:24:21.858Z,100.00
2022-11-10T12:26:55.049Z,100.00
2022-11-10T12:29:30.549Z,100.00
2022-11-10T12:32:04.596Z,99.99
2022-11-10T12:34:40.588Z,100.00
2022-11-10T12:37:15.924Z,99.97
2022-11-10T12:39:54.808Z,100.00
2022-11-10T12:42:25.544Z,100.00
2022-11-10T12:45:00.679Z,99.38
2022-11-10T12:47:32.998Z,98.33
2022-11-10T12:50:20.740Z,98.39
2022-11-10T12:52:54.491Z,98.63
2022-11-10T12:55:34.357Z,99.44
2022-11-10T12:58:04.542Z,99.85
2022-11-10T13:00:39.158Z,99.86
2022-11-10T13:03:15.344Z,100.00
2022-11-10T13:05:56.351Z,100.00
2022-11-10T13:08:34.807Z,100.00
2022-11-10T13:11:09.448Z,100.00
2022-11-10T13:13:47.108Z,100.00
2022-11-10T13:16:52.071Z,100.00
2022-11-10T13:19:52.643Z,100.00
2022-11-10T13:22:37.769Z,100.00
2022-11-10T13:25:42.568Z,100.00
2022-11-10T13:28:13.790Z,100.00
2022-11-10T13:30:46.588Z,100.00
2022-11-10T13:33:37.166Z,100.00
2022-11-10T13:36:07.120Z,100.00
2022-11-10T13:38:38.485Z,100.00
2022-11-10T13:41:27.476Z,100.00
2022-11-10T13:43:58.787Z,100.00
2022-11-10T13:46:38.768Z,100.00
2022-11-10T13:49:28.380Z,100.00
2022-11-10T13:52:06.956Z,100.00
2022-11-10T13:54:53.823Z,100.00
2022-11-10T13:57:31.128Z,100.00
2022-11-10T14:00:02.688Z,100.00
2022-11-10T14:02:51.157Z,100.00
2022-11-10T14:06:03.364Z,100.00
2022-11-10T14:08:38.798Z,100.00
2022-11-10T14:11:14.352Z,100.00
2022-11-10T14:13:45.154Z,100.00
2022-11-10T14:16:19.732Z,100.00
2022-11-10T14:18:52.657Z,100.00
2022-11-10T14:21:29.895Z,100.00
2022-11-10T14:24:04.308Z,100.00
2022-11-10T14:26:36.281Z,100.00
2022-11-10T14:29:28.173Z,100.00
2022-11-10T14:31:58.068Z,100.00
2022-11-10T14:34:26.238Z,100.00
2022-11-10T14:36:56.090Z,100.00
2022-11-10T14:39:32.753Z,100.00
2022-11-10T14:42:03.317Z,100.00
2022-11-10T14:44:32.475Z,100.00
2022-11-10T14:47:16.010Z,100.00
2022-11-10T14:49:44.915Z,100.00
2022-11-10T14:52:15.500Z,100.00
2022-11-10T14:54:49.365Z,100.00
2022-11-10T14:57:19.597Z,100.00
2022-11-10T14:59:47.754Z,100.00
2022-11-10T15:02:19.940Z,100.00
2022-11-10T15:04:51.044Z,100.00
2022-11-10T15:07:19.847Z,100.00
2022-11-10T15:10:06.920Z,100.00
2022-11-10T15:12:38.182Z,100.00
2022-11-10T15:15:20.295Z,100.00
2022-11-10T15:17:51.277Z,100.00
2022-11-10T15:20:37.236Z,100.00
2022-11-10T15:23:13.377Z,100.00
2022-11-10T15:25:42.158Z,100.00
2022-11-10T15:28:24.122Z,100.00
2022-11-10T15:30:55.043Z,100.00
2022-11-10T15:33:27.245Z,100.00
2022-11-10T15:35:56.267Z,100.00
2022-11-10T15:38:32.500Z,100.00
2022-11-10T15:41:12.678Z,100.00
2022-11-10T15:43:40.616Z,100.00
2022-11-10T15:46:18.100Z,100.00
2022-11-10T15:48:49.944Z,100.00
2022-11-10T15:51:24.692Z,100.00
2022-11-10T15:53:56.526Z,100.00
2022-11-10T15:56:25.731Z,100.00
2022-11-10T15:59:00.644Z,100.00
2022-11-10T16:01:29.936Z,100.00
2022-11-10T16:03:59.343Z,100.00
2022-11-10T16:06:27.434Z,100.00
2022-11-10T16:08:55.390Z,100.00
2022-11-10T16:11:24.603Z,100.00
2022-11-10T16:13:53.659Z,100.00
2022-11-10T16:16:23.809Z,100.00
2022-11-10T16:18:54.420Z,100.00
2022-11-10T16:21:25.564Z,100.00
2022-11-10T16:23:53.987Z,100.00
2022-11-10T16:26:24.592Z,100.00
2022-11-10T16:28:52.379Z,100.00
2022-11-10T16:31:22.377Z,100.00
2022-11-10T16:33:50.718Z,100.00
2022-11-10T16:36:25.553Z,100.00
2022-11-10T16:38:54.413Z,100.00
2022-11-10T16:41:22.751Z,100.00
2022-11-10T16:43:50.688Z,100.00
2022-11-10T16:46:22.606Z,100.00
2022-11-10T16:48:52.300Z,100.00
2022-11-10T16:51:27.771Z,100.00
2022-11-10T16:53:59.357Z,100.00
2022-11-10T16:56:27.308Z,100.00
2022-11-10T16:58:55.937Z,100.00
2022-11-10T17:01:28.571Z,100.00
2022-11-10T17:03:59.589Z,100.00
2022-11-10T17:06:32.473Z,100.00
2022-11-10T17:09:07.737Z,100.00
2022-11-10T17:11:36.213Z,100.00
2022-11-10T17:14:04.263Z,100.00
2022-11-10T17:16:34.683Z,100.00
2022-11-10T17:19:04.773Z,100.00
2022-11-10T17:21:35.173Z,100.00
2022-11-10T17:24:05.671Z,100.00
2022-11-10T17:26:35.221Z,100.00
2022-11-10T17:29:03.098Z,100.00
2022-11-10T17:31:31.382Z,100.00
2022-11-10T17:33:59.427Z,100.00
2022-11-10T17:36:27.331Z,100.00
2022-11-10T17:38:55.447Z,100.00
2022-11-10T17:41:24.525Z,100.00
2022-11-10T17:43:52.370Z,100.00
2022-11-10T17:46:20.172Z,100.00
2022-11-10T17:48:48.079Z,100.00
2022-11-10T17:51:19.983Z,100.00
2022-11-10T17:53:48.226Z,100.00
2022-11-10T17:56:16.282Z,100.00
2022-11-10T17:58:45.397Z,100.00
2022-11-10T18:01:17.139Z,100.00
2022-11-10T18:03:45.780Z,100.00
2022-11-10T18:06:14.941Z,100.00
2022-11-10T18:08:43.536Z,100.00
2022-11-10T18:11:12.923Z,100.00
2022-11-10T18:13:42.263Z,100.00
2022-11-10T18:16:12.731Z,100.00
2022-11-10T18:18:41.749Z,100.00
2022-11-10T18:21:10.991Z,100.00
2022-11-10T18:23:38.789Z,100.00
2022-11-10T18:26:08.097Z,100.00
2022-11-10T18:28:36.668Z,100.00
2022-11-10T18:31:07.927Z,100.00
2022-11-10T18:33:37.837Z,100.00
2022-11-10T18:36:06.361Z,100.00
2022-11-10T18:38:34.270Z,100.00
2022-11-10T18:41:24.563Z,100.00
2022-11-10T18:43:52.408Z,100.00
2022-11-10T18:46:21.403Z,100.00
2022-11-10T18:48:50.549Z,100.00
2022-11-10T18:51:18.272Z,100.00
2022-11-10T18:53:46.009Z,100.00
2022-11-10T18:56:14.319Z,100.00
2022-11-10T18:58:42.564Z,100.00
2022-11-10T19:01:11.679Z,100.00
2022-11-10T19:03:39.650Z,100.00
2022-11-10T19:06:09.488Z,100.00
2022-11-10T19:08:37.406Z,100.00
2022-11-10T19:11:07.279Z,100.00
2022-11-10T19:13:35.348Z,100.00
2022-11-10T19:16:05.139Z,100.00
2022-11-10T19:18:32.878Z,100.00
2022-11-10T19:21:05.441Z,100.00
2022-11-10T19:23:35.287Z,100.00
2022-11-10T19:26:03.615Z,100.00
2022-11-10T19:28:31.373Z,100.00
2022-11-10T19:31:02.513Z,100.00
2022-11-10T19:33:31.667Z,100.00
2022-11-10T19:36:03.173Z,100.00
2022-11-10T19:38:31.263Z,100.00
2022-11-10T19:41:04.867Z,100.00
2022-11-10T19:43:32.920Z,100.00
2022-11-10T19:46:09.506Z,100.00
2022-11-10T19:48:47.126Z,100.00
2022-11-10T19:51:16.951Z,100.00
2022-11-10T19:53:46.290Z,100.00
2022-11-10T19:56:20.017Z,100.00
2022-11-10T19:58:48.975Z,100.00
2022-11-10T20:01:18.378Z,100.00
2022-11-10T20:03:46.399Z,100.00
2022-11-10T20:06:16.262Z,100.00
2022-11-10T20:08:44.983Z,100.00
2022-11-10T20:11:15.963Z,100.00
2022-11-10T20:13:43.852Z,100.00
2022-11-10T20:16:13.198Z,100.00
2022-11-10T20:18:41.593Z,100.00
2022-11-10T20:21:11.483Z,100.00
2022-11-10T20:23:39.986Z,100.00
2022-11-10T20:26:09.927Z,100.00
2022-11-10T20:28:39.906Z,100.00
2022-11-10T20:31:10.305Z,100.00
2022-11-10T20:33:39.120Z,100.00
2022-11-10T20:36:09.073Z,100.00
2022-11-10T20:38:37.348Z,100.00
2022-11-10T20:41:06.585Z,100.00
2022-11-10T20:43:35.708Z,100.00
2022-11-10T20:46:06.106Z,100.00
2022-11-10T20:48:34.960Z,100.00
2022-11-10T20:51:08.424Z,100.00
2022-11-10T20:53:36.175Z,100.00
2022-11-10T20:56:04.901Z,100.00
2022-11-10T20:58:32.632Z,100.00
2022-11-10T21:01:02.616Z,100.00
2022-11-10T21:03:32.553Z,100.00
2022-11-10T21:06:01.351Z,100.00
2022-11-10T21:08:29.557Z,100.00
2022-11-10T21:10:59.170Z,100.00
2022-11-10T21:13:28.028Z,100.00
2022-11-10T21:15:59.762Z,100.00
2022-11-10T21:18:30.044Z,100.00
2022-11-10T21:20:59.079Z,100.00
2022-11-10T21:23:26.834Z,100.00
2022-11-10T21:25:55.174Z,100.00
2022-11-10T21:28:23.371Z,100.00
2022-11-10T21:30:51.616Z,100.00
2022-11-10T21:33:19.923Z,100.00
2022-11-10T21:35:47.826Z,100.00
2022-11-10T21:38:16.970Z,100.00
2022-11-10T21:40:44.651Z,100.00
2022-11-10T21:43:15.275Z,100.00
2022-11-10T21:45:43.009Z,100.00
2022-11-10T21:48:10.780Z,100.00
2022-11-10T21:50:38.485Z,100.00
2022-11-10T21:53:07.855Z,100.00
2022-11-10T21:55:36.867Z,100.00
2022-11-10T21:58:04.616Z,100.00
2022-11-10T22:00:32.365Z,100.00
2022-11-10T22:03:00.218Z,100.00
2022-11-10T22:05:28.153Z,100.00
2022-11-10T22:07:56.044Z,100.00
2022-11-10T22:10:41.654Z,100.00
2022-11-10T22:13:34.204Z,100.00
2022-11-10T22:16:19.873Z,100.00
2022-11-10T22:18:47.936Z,100.00
2022-11-10T22:21:15.585Z,100.00
2022-11-10T22:24:00.984Z,100.00
2022-11-10T22:26:28.714Z,100.00
2022-11-10T22:28:57.807Z,100.00
2022-11-10T22:31:25.544Z,100.00
2022-11-10T22:33:53.289Z,100.00
2022-11-10T22:36:21.695Z,100.00
2022-11-10T22:38:49.624Z,100.00
2022-11-10T22:41:35.388Z,100.00
2022-11-10T22:44:07.822Z,100.00
2022-11-10T22:46:37.917Z,100.00
2022-11-10T22:49:07.841Z,100.00
2022-11-10T22:51:37.385Z,100.00
2022-11-10T22:54:06.676Z,100.00
2022-11-10T22:56:34.557Z,100.00
2022-11-10T22:59:03.877Z,100.00
2022-11-10T23:01:32.106Z,100.00
2022-11-10T23:04:00.152Z,100.00
2022-11-10T23:06:28.196Z,100.00
2022-11-10T23:08:56.413Z,100.00
2022-11-10T23:11:26.272Z,100.00
2022-11-10T23:13:54.114Z,100.00
2022-11-10T23:16:25.653Z,100.00
2022-11-10T23:18:54.637Z,100.00
2022-11-10T23:21:24.658Z,100.00
2022-11-10T23:23:53.436Z,100.00
2022-11-10T23:26:23.386Z,100.00
2022-11-10T23:28:52.103Z,100.00
2022-11-10T23:31:21.605Z,100.00
2022-11-10T23:33:52.115Z,100.00
2022-11-10T23:36:21.288Z,100.00
2022-11-10T23:38:49.226Z,100.00
2022-11-10T23:41:19.102Z,100.00
2022-11-10T23:43:47.376Z,100.00
2022-11-10T23:46:15.443Z,100.00
2022-11-10T23:48:43.509Z,100.00
2022-11-10T23:51:14.730Z,100.00
2022-11-10T23:53:42.946Z,100.00
2022-11-10T23:56:12.877Z,100.00
2022-11-10T23:58:40.849Z,100.00
